Aérodrome :
LOGIN :

S'inscrire | Disclaimer

   EN    FR    IT 

 










Légende :    VFR   VFR Marginal   IFR   IFR Intensif   IFR Très Intensif
Visi : 
Plafond : 
>= 8 km
>= 3000ft
5 à 8 km
1000 à 3000 ft
1500m à 5 km
500 à 1000 ft
800 à 1500m
200 à 500 ft
< 800m
< 200 ft
Symboles :   Orages  Brouillard  Fortes neiges  Fortes précipitations  Vent > 20 kt
SIGMETs :   Divers  Orages  Givrage  Turbulence  Onde Orograph.  Cendres Volcan.






- Altitude de l'aérodrome : 3 ft
- Code IATA : LWR


EHLW - Leuuwarden Air Base

DERNIER METAR :
  • 211255Z AUTO 18005KT 130V200 9000 BR OVC005/// 13/12 Q1015 YLO 17005KT 9999 BKN005

METARs EXPIRÉS :
  • 211241Z AUTO 17005KT 140V210 9999 OVC005 13/12 Q1015 YLO 17005KT 9999 BKN005
  • 211225Z AUTO 14005KT 100V190 9999 OVC004 13/12 Q1015 YLO 13007KT 9999 BKN005
  • 211209Z AUTO 15004KT 100V180 9999 SCT005 OVC006 13/12 Q1015 YLO 13007KT 9999 BKN005
  • 211155Z AUTO 13004KT 080V160 9999 BKN004 OVC006 13/12 Q1015 YLO 13007KT 9999 BKN005
  • 211126Z AUTO 13006KT 080V150 9999 BKN005 OVC006 13/12 Q1015 YLO 13007KT 9999 BKN005
  • 211125Z AUTO 12007KT 080V150 9999 BKN005 OVC006 13/12 Q1015 YLO 10007KT 9999 BKN007 TEMPO 4000 -RADZ SCT003 BKN005
  • 211103Z AUTO 09008KT 010V180 9999 FEW006 SCT007 BKN008 13/12 Q1015 GRN 10007KT 9999 BKN007 TEMPO 4000 -RADZ SCT003 BKN005
  • 211055Z AUTO 10009KT 010V180 9999 SCT006 OVC007 13/12 Q1015 YLO 10007KT 9999 BKN007 TEMPO 4000 -RADZ SCT003 BKN005
  • 211025Z AUTO VRB09KT 9999 SCT005 BKN006 BKN008 FEW015CB 12/12 Q1015 YLO 08009KT 8000 BKN005 TEMPO 4000 -RADZ SCT003 BKN005
  • 211013Z AUTO 08010KT 360V150 9999 SCT004 BKN005 BKN007 SCT015CB 12/12 Q1014 YLO 08009KT 8000 BKN005 TEMPO 4000 -RADZ SCT003 BKN005
  • 210959Z AUTO 08009KT 020V130 9999 -RA FEW003 BKN005 BKN006 BKN015CB 12/12 Q1014 YLO 08009KT 8000 BKN005 TEMPO 4000 -RADZ SCT003 BKN005

TAF TAF EHLW
Valide du 21 à 09h jusqu'au 21 à 21h UTC


210831Z 2109/2121 06015KT 7000 SCT006 BKN010
TEMPO 2109/2114 3000 DZRA BKN003
PROB40
TEMPO 2109/2114 1500 BR BKN001
BECMG 2111/2113 20007KT
BECMG 2113/2116 SCT018 BKN025



MET'MAP, la Météo Aéronautique d'un coup d'oeil ! - Copyright ORBIFLY Décembre 2007 - Disclaimer

ORBIFLY MET'MAP TEAM :

Programmation & Développement : Alexandra Zaïnal
Conception & Développement : Baudouin d'Aumeries
Co-Programmation & Développement : Marc-Olivier Méhu
Soutien technique & logistique : Manuel Goepfert

Contact : metmap@orbifly.com




SOURCES & CREDITS :

   NOAA